Csl Argosy — C6UZ9 — position and weather

sailwx.info

Track history (hours):
 
Tides and Currents Weather Stations Pressure Air Temp Water Temp Dewpoint Dewpoint Depression Visibility Wind Speed Wind Dir Waves Ship Positions

Csl Argosy

Last reported at 2017-Jun-24 19:00 UTC. Time now 2017-Jun-24 19:01 UTC.
Position N 61°46' E 005°10'.

Length 244 m; draft 8.3 m.

Type: Cargo ship. MMSI: 308299000.

Date/timePositionNaut miles runAvg speedWind from/ knotsBaromVisibWave heightAir tempDewpointWater temp
2017-Jun-24 19:00N 61°46' E 005°10'0 0.0
2017-Jun-24 18:30N 61°46' E 005°10'0 0.0
2017-Jun-24 18:00N 61°46' E 005°10'0 0.0
2017-Jun-24 17:30N 61°46' E 005°10'0 0.0
2017-Jun-24 17:00N 61°46' E 005°10'0 0.0
2017-Jun-24 16:30N 61°46' E 005°10'0 0.0
2017-Jun-24 16:00N 61°46' E 005°10'0 0.0
2017-Jun-24 15:30N 61°46' E 005°10'0 0.0
2017-Jun-24 15:00N 61°46' E 005°10'0 0.0
2017-Jun-24 13:57N 61°46' E 005°10'0 0.0
2017-Jun-24 13:30N 61°46' E 005°10'0 0.0
2017-Jun-24 13:00N 61°46' E 005°10'0 0.0
2017-Jun-24 12:30N 61°46' E 005°10'0 0.0
2017-Jun-24 12:00N 61°46' E 005°10'0 0.0
2017-Jun-24 11:30N 61°46' E 005°10'0 0.0
2017-Jun-24 10:57N 61°46' E 005°10'0 0.0
2017-Jun-24 10:30N 61°46' E 005°10'0 0.0
2017-Jun-24 10:00N 61°46' E 005°10'0 0.0
2017-Jun-24 09:30N 61°46' E 005°10'0 0.0
2017-Jun-24 09:00N 61°46' E 005°10'0 0.0
2017-Jun-24 08:25N 61°46' E 005°10'0 0.0
2017-Jun-24 08:00N 61°46' E 005°10'0 0.0
2017-Jun-24 07:30N 61°46' E 005°10'0 0.0
2017-Jun-24 07:00N 61°46' E 005°10'0 0.0
2017-Jun-24 06:30N 61°46' E 005°10'0 0.2
2017-Jun-24 06:00N 61°46' E 005°10'1 1.9
2017-Jun-24 05:30N 61°45' E 005°09'3 5.7
2017-Jun-24 04:59N 61°46' E 005°03'5 9.5
2017-Jun-24 04:30N 61°44' E 004°54'4 8.3
2017-Jun-24 04:00N 61°42' E 004°46'4 7.9
2017-Jun-24 03:30N 61°42' E 004°38'4 7.9
2017-Jun-24 03:00N 61°42' E 004°29'305 7.4
2017-Jun-22 09:56N 57°23' W 000°47'6 9.7
2017-Jun-22 09:21N 57°17' W 000°47'5 9.8
2017-Jun-22 08:51N 57°12' W 000°47'410.3
2017-Jun-22 08:30N 57°08' W 000°46'610.5
2017-Jun-22 07:58N 57°03' W 000°46'610.4
2017-Jun-22 07:25N 56°57' W 000°46'510.7
2017-Jun-22 06:55N 56°52' W 000°46'8911.6
2017-Jun-21 23:15N 55°23' W 000°46'311.2
2017-Jun-21 22:57N 55°20' W 000°46'511.3
2017-Jun-21 22:30N 55°15' W 000°46'911.2
2017-Jun-21 21:43N 55°06' W 000°49'311.4
2017-Jun-21 21:30N 55°04' W 000°51'611.4
2017-Jun-21 21:00N 54°59' W 000°55'611.4
2017-Jun-21 20:30N 54°54' W 000°59'611.4
2017-Jun-21 20:00N 54°48' W 001°03'611.6
2017-Jun-21 19:29N 54°43' W 001°06'4 0.1
2017-Jun-19 23:03N 54°39' W 001°08'0 7.5
2017-Jun-19 23:00N 54°39' W 001°08'4 7.6
2017-Jun-19 22:29N 54°43' W 001°05'3 6.6
2017-Jun-19 22:00N 54°46' W 001°04'5 9.4
2017-Jun-19 21:30N 54°50' W 001°01'4 7.1
2017-Jun-19 21:00N 54°53' W 000°59'0 0.2
2017-Jun-19 20:30N 54°53' W 000°59'0 0.7
2017-Jun-19 20:00N 54°53' W 000°58'1 1.6
2017-Jun-19 19:30N 54°54' W 000°59'611.0
2017-Jun-19 18:59N 54°60' W 000°56'511.0
2017-Jun-19 18:30N 55°05' W 000°53'610.7
2017-Jun-19 17:58N 55°10' W 000°51'510.6
2017-Jun-19 17:29N 55°15' W 000°48'9810.5
2017-Jun-19 08:06N 56°53' W 000°60'111.2
2017-Jun-19 07:58N 56°55' W 001°00'811.4
2017-Jun-19 07:17N 57°02' W 001°02'311.5
2017-Jun-19 07:00N 57°06' W 001°02'711.4
2017-Jun-19 06:25N 57°12' W 001°03'3310.5
2017-Jun-19 03:17N 57°43' W 001°26'1010.3
2017-Jun-19 02:22N 57°50' W 001°38'5610.4
2017-Jun-18 20:58N 58°33' W 002°46'510.4
2017-Jun-18 20:30N 58°36' W 002°52'510.6
2017-Jun-18 20:00N 58°40' W 002°59'5 9.5
2017-Jun-18 19:30N 58°43' W 003°07'510.5
2017-Jun-18 19:00N 58°43' W 003°17'611.4
2017-Jun-18 18:30N 58°43' W 003°28'611.4
2017-Jun-18 18:00N 58°43' W 003°39'611.7
2017-Jun-18 17:30N 58°43' W 003°50'611.8
2017-Jun-18 17:00N 58°43' W 004°02'611.7
2017-Jun-18 16:30N 58°42' W 004°13'611.8
2017-Jun-18 16:00N 58°42' W 004°24'2911.2
2017-Jun-18 13:28N 58°31' W 005°15'3211.5
2017-Jun-18 10:39N 58°04' W 005°49'77 8.9
2017-Jun-18 01:59N 56°50' W 006°24'33 7.7
2017-Jun-17 21:43N 56°34' W 005°31'0 1.8
2017-Jun-17 21:28N 56°34' W 005°32'0 0.1
2017-Jun-17 20:49N 56°34' W 005°32'0 0.0
2017-Jun-17 20:13N 56°34' W 005°32'0 0.0
2017-Jun-17 19:49N 56°34' W 005°32'0 0.0
2017-Jun-17 19:16N 56°34' W 005°32'0 0.0
2017-Jun-17 18:55N 56°34' W 005°32'0 0.0
2017-Jun-17 18:25N 56°34' W 005°32'0 0.0
2017-Jun-17 17:58N 56°34' W 005°32'0 0.0
2017-Jun-17 14:31N 56°34' W 005°32'0 0.0
2017-Jun-17 13:55N 56°34' W 005°32'0 0.0
2017-Jun-17 13:25N 56°34' W 005°32'0 0.0
2017-Jun-17 12:58N 56°34' W 005°32'0 0.0
2017-Jun-17 12:22N 56°34' W 005°32'0 0.0
2017-Jun-17 11:58N 56°34' W 005°32'0 0.0
2017-Jun-17 11:28N 56°34' W 005°32'0 0.0
2017-Jun-17 10:58N 56°34' W 005°32'0 0.0
2017-Jun-17 10:28N 56°34' W 005°32'0 0.0
2017-Jun-17 09:55N 56°34' W 005°32'0 0.0
2017-Jun-17 09:28N 56°34' W 005°32'0 0.0
2017-Jun-17 08:58N 56°34' W 005°32'0 0.0
2017-Jun-17 08:25N 56°34' W 005°32'0 0.0
2017-Jun-17 07:58N 56°34' W 005°32'0 0.0
2017-Jun-17 07:25N 56°34' W 005°32'0 0.0
2017-Jun-17 06:58N 56°34' W 005°32'0 0.0
2017-Jun-17 06:25N 56°34' W 005°32'0 0.0
2017-Jun-17 05:58N 56°34' W 005°32'0 0.0
2017-Jun-17 05:28N 56°34' W 005°32'0 0.0
2017-Jun-17 04:58N 56°34' W 005°32'0 0.0
2017-Jun-17 04:16N 56°34' W 005°32'0 0.0
2017-Jun-17 03:55N 56°34' W 005°32'0 0.0
2017-Jun-17 03:28N 56°34' W 005°32'0 0.0
2017-Jun-17 02:55N 56°34' W 005°32'0 0.0
2017-Jun-17 02:28N 56°34' W 005°32'0 0.0
2017-Jun-17 01:58N 56°34' W 005°32'0 0.0
2017-Jun-17 01:28N 56°34' W 005°32'0 0.0
2017-Jun-17 00:58N 56°34' W 005°32'0 0.0
2017-Jun-17 00:28N 56°34' W 005°32'0 0.0
2017-Jun-16 23:58N 56°34' W 005°32'0 0.0
2017-Jun-16 23:28N 56°34' W 005°32'0 0.0
2017-Jun-16 22:58N 56°34' W 005°32'0 0.0
2017-Jun-16 22:25N 56°34' W 005°32'0 0.0
2017-Jun-16 21:55N 56°34' W 005°32'0 0.0
2017-Jun-16 21:28N 56°34' W 005°32'0 0.0
2017-Jun-16 20:49N 56°34' W 005°32'0 0.0
2017-Jun-16 20:25N 56°34' W 005°32'0 0.0
2017-Jun-16 19:58N 56°34' W 005°32'0 0.7
2017-Jun-16 19:31N 56°34' W 005°32'3 5.5
2017-Jun-16 19:01N 56°31' W 005°34'3 5.5
2017-Jun-16 18:30N 56°29' W 005°38'4 8.9
2017-Jun-16 18:00N 56°25' W 005°37'5 9.5
2017-Jun-16 17:29N 56°20' W 005°41'611.2
2017-Jun-16 16:58N 56°17' W 005°50'3611.2
2017-Jun-16 13:47N 55°53' W 006°35'310.4
2017-Jun-16 13:30N 55°50' W 006°38'5 9.5
2017-Jun-16 13:01N 55°45' W 006°38'4 8.9
2017-Jun-16 12:31N 55°41' W 006°37'4 8.3
2017-Jun-16 12:01N 55°37' W 006°35'5 9.4
2017-Jun-16 11:31N 55°34' W 006°29'5 9.0
2017-Jun-16 11:00N 55°30' W 006°23'5 9.9
2017-Jun-16 10:30N 55°27' W 006°17'510.0
2017-Jun-16 10:01N 55°25' W 006°09'5 9.9
2017-Jun-16 09:30N 55°23' W 006°01'612.1
2017-Jun-16 09:01N 55°18' W 005°55'612.7
2017-Jun-16 08:30N 55°13' W 005°49'612.7
2017-Jun-16 08:00N 55°08' W 005°43'612.7
2017-Jun-16 07:31N 55°03' W 005°36'612.5
2017-Jun-16 07:00N 54°57' W 005°30'612.8
2017-Jun-16 06:30N 54°52' W 005°25'612.7
2017-Jun-16 06:00N 54°46' W 005°19'612.7
2017-Jun-16 05:31N 54°41' W 005°14'612.2
2017-Jun-16 05:00N 54°36' W 005°08'611.7
2017-Jun-16 04:30N 54°30' W 005°05'611.8
2017-Jun-16 04:00N 54°24' W 005°05'611.3
2017-Jun-16 03:30N 54°19' W 005°05'511.1
2017-Jun-16 03:01N 54°13' W 005°06'611.3
2017-Jun-16 02:31N 54°08' W 005°07'611.1
2017-Jun-16 02:00N 54°02' W 005°07'611.0
2017-Jun-16 01:29N 53°56' W 005°08'10110.7
2017-Jun-15 16:03N 52°17' W 005°36'10211.3
2017-Jun-15 07:02N 50°39' W 006°20'011.2
2017-Jun-15 07:00N 50°39' W 006°20'611.2
2017-Jun-15 06:25N 50°32' W 006°23'511.2
2017-Jun-15 06:00N 50°28' W 006°25'611.8
2017-Jun-15 05:30N 50°22' W 006°27'7611.3
2017-Jun-14 22:47N 49°10' W 007°03'710.9
2017-Jun-14 22:08N 49°03' W 007°06'1610.5
2017-Jun-14 20:38N 48°48' W 007°13'210.8
2017-Jun-14 20:28N 48°46' W 007°13'  
Track history (hours):
 
Tides and Currents Weather Stations Pressure Air Temp Water Temp Dewpoint Dewpoint Depression Visibility Wind Speed Wind Dir Waves Ship Positions

Csl Argosy

Last reported at 2017-Jun-24 19:00 UTC. Time now 2017-Jun-24 19:01 UTC.
Position N 61°46' E 005°10'.

Length 244 m; draft 8.3 m.

Type: Cargo ship. MMSI: 308299000.

Date/timePositionNaut miles runAvg speedWind from/ knotsBaromVisibWave heightAir tempDewpointWater temp
2017-Jun-24 19:00N 61°46' E 005°10'0 0.0
2017-Jun-24 18:30N 61°46' E 005°10'0 0.0
2017-Jun-24 18:00N 61°46' E 005°10'0 0.0
2017-Jun-24 17:30N 61°46' E 005°10'0 0.0
2017-Jun-24 17:00N 61°46' E 005°10'0 0.0
2017-Jun-24 16:30N 61°46' E 005°10'0 0.0
2017-Jun-24 16:00N 61°46' E 005°10'0 0.0
2017-Jun-24 15:30N 61°46' E 005°10'0 0.0
2017-Jun-24 15:00N 61°46' E 005°10'0 0.0
2017-Jun-24 13:57N 61°46' E 005°10'0 0.0
2017-Jun-24 13:30N 61°46' E 005°10'0 0.0
2017-Jun-24 13:00N 61°46' E 005°10'0 0.0
2017-Jun-24 12:30N 61°46' E 005°10'0 0.0
2017-Jun-24 12:00N 61°46' E 005°10'0 0.0
2017-Jun-24 11:30N 61°46' E 005°10'0 0.0
2017-Jun-24 10:57N 61°46' E 005°10'0 0.0
2017-Jun-24 10:30N 61°46' E 005°10'0 0.0
2017-Jun-24 10:00N 61°46' E 005°10'0 0.0
2017-Jun-24 09:30N 61°46' E 005°10'0 0.0
2017-Jun-24 09:00N 61°46' E 005°10'0 0.0
2017-Jun-24 08:25N 61°46' E 005°10'0 0.0
2017-Jun-24 08:00N 61°46' E 005°10'0 0.0
2017-Jun-24 07:30N 61°46' E 005°10'0 0.0
2017-Jun-24 07:00N 61°46' E 005°10'0 0.0
2017-Jun-24 06:30N 61°46' E 005°10'0 0.2
2017-Jun-24 06:00N 61°46' E 005°10'1 1.9
2017-Jun-24 05:30N 61°45' E 005°09'3 5.7
2017-Jun-24 04:59N 61°46' E 005°03'5 9.5
2017-Jun-24 04:30N 61°44' E 004°54'4 8.3
2017-Jun-24 04:00N 61°42' E 004°46'4 7.9
2017-Jun-24 03:30N 61°42' E 004°38'4 7.9
2017-Jun-24 03:00N 61°42' E 004°29'305 7.4
2017-Jun-22 09:56N 57°23' W 000°47'6 9.7
2017-Jun-22 09:21N 57°17' W 000°47'5 9.8
2017-Jun-22 08:51N 57°12' W 000°47'410.3
2017-Jun-22 08:30N 57°08' W 000°46'610.5
2017-Jun-22 07:58N 57°03' W 000°46'610.4
2017-Jun-22 07:25N 56°57' W 000°46'510.7
2017-Jun-22 06:55N 56°52' W 000°46'8911.6
2017-Jun-21 23:15N 55°23' W 000°46'311.2
2017-Jun-21 22:57N 55°20' W 000°46'511.3
2017-Jun-21 22:30N 55°15' W 000°46'911.2
2017-Jun-21 21:43N 55°06' W 000°49'311.4
2017-Jun-21 21:30N 55°04' W 000°51'611.4
2017-Jun-21 21:00N 54°59' W 000°55'611.4
2017-Jun-21 20:30N 54°54' W 000°59'611.4
2017-Jun-21 20:00N 54°48' W 001°03'611.6
2017-Jun-21 19:29N 54°43' W 001°06'4 0.1
2017-Jun-19 23:03N 54°39' W 001°08'0 7.5
2017-Jun-19 23:00N 54°39' W 001°08'4 7.6
2017-Jun-19 22:29N 54°43' W 001°05'3 6.6
2017-Jun-19 22:00N 54°46' W 001°04'5 9.4
2017-Jun-19 21:30N 54°50' W 001°01'4 7.1
2017-Jun-19 21:00N 54°53' W 000°59'0 0.2
2017-Jun-19 20:30N 54°53' W 000°59'0 0.7
2017-Jun-19 20:00N 54°53' W 000°58'1 1.6
2017-Jun-19 19:30N 54°54' W 000°59'611.0
2017-Jun-19 18:59N 54°60' W 000°56'511.0
2017-Jun-19 18:30N 55°05' W 000°53'610.7
2017-Jun-19 17:58N 55°10' W 000°51'510.6
2017-Jun-19 17:29N 55°15' W 000°48'9810.5
2017-Jun-19 08:06N 56°53' W 000°60'111.2
2017-Jun-19 07:58N 56°55' W 001°00'811.4
2017-Jun-19 07:17N 57°02' W 001°02'311.5
2017-Jun-19 07:00N 57°06' W 001°02'711.4
2017-Jun-19 06:25N 57°12' W 001°03'3310.5
2017-Jun-19 03:17N 57°43' W 001°26'1010.3
2017-Jun-19 02:22N 57°50' W 001°38'5610.4
2017-Jun-18 20:58N 58°33' W 002°46'510.4
2017-Jun-18 20:30N 58°36' W 002°52'510.6
2017-Jun-18 20:00N 58°40' W 002°59'5 9.5
2017-Jun-18 19:30N 58°43' W 003°07'510.5
2017-Jun-18 19:00N 58°43' W 003°17'611.4
2017-Jun-18 18:30N 58°43' W 003°28'611.4
2017-Jun-18 18:00N 58°43' W 003°39'611.7
2017-Jun-18 17:30N 58°43' W 003°50'611.8
2017-Jun-18 17:00N 58°43' W 004°02'611.7
2017-Jun-18 16:30N 58°42' W 004°13'611.8
2017-Jun-18 16:00N 58°42' W 004°24'2911.2
2017-Jun-18 13:28N 58°31' W 005°15'3211.5
2017-Jun-18 10:39N 58°04' W 005°49'77 8.9
2017-Jun-18 01:59N 56°50' W 006°24'33 7.7
2017-Jun-17 21:43N 56°34' W 005°31'0 1.8
2017-Jun-17 21:28N 56°34' W 005°32'0 0.1
2017-Jun-17 20:49N 56°34' W 005°32'0 0.0
2017-Jun-17 20:13N 56°34' W 005°32'0 0.0
2017-Jun-17 19:49N 56°34' W 005°32'0 0.0
2017-Jun-17 19:16N 56°34' W 005°32'0 0.0
2017-Jun-17 18:55N 56°34' W 005°32'0 0.0
2017-Jun-17 18:25N 56°34' W 005°32'0 0.0
2017-Jun-17 17:58N 56°34' W 005°32'0 0.0
2017-Jun-17 14:31N 56°34' W 005°32'0 0.0
2017-Jun-17 13:55N 56°34' W 005°32'0 0.0
2017-Jun-17 13:25N 56°34' W 005°32'0 0.0
2017-Jun-17 12:58N 56°34' W 005°32'0 0.0
2017-Jun-17 12:22N 56°34' W 005°32'0 0.0
2017-Jun-17 11:58N 56°34' W 005°32'0 0.0
2017-Jun-17 11:28N 56°34' W 005°32'0 0.0
2017-Jun-17 10:58N 56°34' W 005°32'0 0.0
2017-Jun-17 10:28N 56°34' W 005°32'0 0.0
2017-Jun-17 09:55N 56°34' W 005°32'0 0.0
2017-Jun-17 09:28N 56°34' W 005°32'0 0.0
2017-Jun-17 08:58N 56°34' W 005°32'0 0.0
2017-Jun-17 08:25N 56°34' W 005°32'0 0.0
2017-Jun-17 07:58N 56°34' W 005°32'0 0.0
2017-Jun-17 07:25N 56°34' W 005°32'0 0.0
2017-Jun-17 06:58N 56°34' W 005°32'0 0.0
2017-Jun-17 06:25N 56°34' W 005°32'0 0.0
2017-Jun-17 05:58N 56°34' W 005°32'0 0.0
2017-Jun-17 05:28N 56°34' W 005°32'0 0.0
2017-Jun-17 04:58N 56°34' W 005°32'0 0.0
2017-Jun-17 04:16N 56°34' W 005°32'0 0.0
2017-Jun-17 03:55N 56°34' W 005°32'0 0.0
2017-Jun-17 03:28N 56°34' W 005°32'0 0.0
2017-Jun-17 02:55N 56°34' W 005°32'0 0.0
2017-Jun-17 02:28N 56°34' W 005°32'0 0.0
2017-Jun-17 01:58N 56°34' W 005°32'0 0.0
2017-Jun-17 01:28N 56°34' W 005°32'0 0.0
2017-Jun-17 00:58N 56°34' W 005°32'0 0.0
2017-Jun-17 00:28N 56°34' W 005°32'0 0.0
2017-Jun-16 23:58N 56°34' W 005°32'0 0.0
2017-Jun-16 23:28N 56°34' W 005°32'0 0.0
2017-Jun-16 22:58N 56°34' W 005°32'0 0.0
2017-Jun-16 22:25N 56°34' W 005°32'0 0.0
2017-Jun-16 21:55N 56°34' W 005°32'0 0.0
2017-Jun-16 21:28N 56°34' W 005°32'0 0.0
2017-Jun-16 20:49N 56°34' W 005°32'0 0.0
2017-Jun-16 20:25N 56°34' W 005°32'0 0.0
2017-Jun-16 19:58N 56°34' W 005°32'0 0.7
2017-Jun-16 19:31N 56°34' W 005°32'3 5.5
2017-Jun-16 19:01N 56°31' W 005°34'3 5.5
2017-Jun-16 18:30N 56°29' W 005°38'4 8.9
2017-Jun-16 18:00N 56°25' W 005°37'5 9.5
2017-Jun-16 17:29N 56°20' W 005°41'611.2
2017-Jun-16 16:58N 56°17' W 005°50'3611.2
2017-Jun-16 13:47N 55°53' W 006°35'310.4
2017-Jun-16 13:30N 55°50' W 006°38'5 9.5
2017-Jun-16 13:01N 55°45' W 006°38'4 8.9
2017-Jun-16 12:31N 55°41' W 006°37'4 8.3
2017-Jun-16 12:01N 55°37' W 006°35'5 9.4
2017-Jun-16 11:31N 55°34' W 006°29'5 9.0
2017-Jun-16 11:00N 55°30' W 006°23'5 9.9
2017-Jun-16 10:30N 55°27' W 006°17'510.0
2017-Jun-16 10:01N 55°25' W 006°09'5 9.9
2017-Jun-16 09:30N 55°23' W 006°01'612.1
2017-Jun-16 09:01N 55°18' W 005°55'612.7
2017-Jun-16 08:30N 55°13' W 005°49'612.7
2017-Jun-16 08:00N 55°08' W 005°43'612.7
2017-Jun-16 07:31N 55°03' W 005°36'612.5
2017-Jun-16 07:00N 54°57' W 005°30'612.8
2017-Jun-16 06:30N 54°52' W 005°25'612.7
2017-Jun-16 06:00N 54°46' W 005°19'612.7
2017-Jun-16 05:31N 54°41' W 005°14'612.2
2017-Jun-16 05:00N 54°36' W 005°08'611.7
2017-Jun-16 04:30N 54°30' W 005°05'611.8
2017-Jun-16 04:00N 54°24' W 005°05'611.3
2017-Jun-16 03:30N 54°19' W 005°05'511.1
2017-Jun-16 03:01N 54°13' W 005°06'611.3
2017-Jun-16 02:31N 54°08' W 005°07'611.1
2017-Jun-16 02:00N 54°02' W 005°07'611.0
2017-Jun-16 01:29N 53°56' W 005°08'10110.7
2017-Jun-15 16:03N 52°17' W 005°36'10211.3
2017-Jun-15 07:02N 50°39' W 006°20'011.2
2017-Jun-15 07:00N 50°39' W 006°20'611.2
2017-Jun-15 06:25N 50°32' W 006°23'511.2
2017-Jun-15 06:00N 50°28' W 006°25'611.8
2017-Jun-15 05:30N 50°22' W 006°27'7611.3
2017-Jun-14 22:47N 49°10' W 007°03'710.9
2017-Jun-14 22:08N 49°03' W 007°06'1610.5
2017-Jun-14 20:38N 48°48' W 007°13'210.8
2017-Jun-14 20:28N 48°46' W 007°13'  

Dump ship's entire track history